Terminal Aerodrome Forecast
Issued by NWS Bismarck, ND

Home | Current Version | Previous Version | Text Only | Print | Product List | Glossary Off
Versions: 1 2 3 4 5 6 7 8 9 10 11 12 13 14 15 16 17

000
FTUS43 KBIS 211735
TAFBIS
TAF
KBIS 211735Z 2118/2218 17015G25KT P6SM SKC
     FM212000 21013KT P6SM FEW100
     FM212100 27012KT P6SM FEW110
     FM212300 33013KT P6SM FEW110
     FM220200 36008KT P6SM FEW110
     FM221200 02012G20KT P6SM SCT130
     FM221700 03013G23KT P6SM BKN030 BKN140=

USA.gov is the U.S. government's official web portal to all federal, state and local government web resources and services.